Time;durP1;ratioP1;P1;durP2;ratioP2;P2;SDS_P1;SDS_P2;PMS_P1;PMS_P2;Temp;Humidity;BMP_temperature;BMP_pressure;BME280_temperature;BME280_humidity;BME280_pressure;Samples;Min_cycle;Max_cycle;Signal;HPM_P1;HPM_P2
2022/07/18 00:01:02;;;;;;;3.10;2.00;;;;;;;27.90;25.02;99996.50;5028503;28;20497;-90
2022/07/18 00:03:28;;;;;;;3.05;1.90;;;;;;;27.04;24.94;99866.75;5015351;28;20021;-89
2022/07/18 00:05:53;;;;;;;2.10;1.83;;;;;;;27.30;24.95;99916.22;5015747;28;20054;-90
2022/07/18 00:08:19;;;;;;;3.85;1.77;;;;;;;27.17;24.92;99909.50;5014620;28;20494;-89
2022/07/18 00:10:44;;;;;;;4.35;2.35;;;;;;;27.37;25.32;99941.94;5015781;28;20485;-89
2022/07/18 00:13:10;;;;;;;5.10;2.00;;;;;;;27.35;25.19;99951.44;5016493;28;20045;-89
2022/07/18 00:15:37;;;;;;;2.95;2.25;;;;;;;27.65;25.06;100005.59;5016206;28;20054;-90
2022/07/18 00:18:03;;;;;;;3.35;1.80;;;;;;;27.39;25.08;99990.47;5016145;28;20033;-90
2022/07/18 00:20:29;;;;;;;4.15;1.90;;;;;;;27.14;25.25;99985.97;5016033;28;20022;-90
2022/07/18 00:22:54;;;;;;;3.70;1.80;;;;;;;27.41;25.31;100018.94;5014753;28;20041;-89
2022/07/18 00:25:20;;;;;;;4.20;1.75;;;;;;;27.21;25.55;100008.16;5015936;28;20489;-89
2022/07/18 00:27:45;;;;;;;2.58;2.00;;;;;;;26.72;25.93;99935.63;5015356;28;20033;-89
2022/07/18 00:30:11;;;;;;;2.08;1.90;;;;;;;26.31;26.46;99905.06;5014935;28;20026;-89
2022/07/18 00:32:37;;;;;;;3.63;2.13;;;;;;;26.60;27.26;99978.44;5014886;28;20084;-90
2022/07/18 00:35:03;;;;;;;4.22;2.28;;;;;;;26.47;27.72;99987.13;5014552;28;20473;-90
2022/07/18 00:37:28;;;;;;;3.47;2.22;;;;;;;26.17;28.04;99931.06;5014714;28;20025;-90
2022/07/18 00:39:54;;;;;;;4.43;2.13;;;;;;;26.15;28.64;99950.28;5015794;28;20509;-90
2022/07/18 00:42:20;;;;;;;2.67;2.15;;;;;;;26.07;28.75;99941.91;5014531;28;20084;-90
2022/07/18 00:44:46;;;;;;;2.75;2.13;;;;;;;26.22;29.41;99972.47;5014460;28;20537;-90
2022/07/18 00:47:11;;;;;;;4.15;2.42;;;;;;;25.47;29.63;99870.38;5014426;28;20112;-90
2022/07/18 00:49:37;;;;;;;3.42;2.38;;;;;;;26.16;29.88;100000.63;5014631;28;20033;-90
2022/07/18 00:52:03;;;;;;;5.05;2.17;;;;;;;26.05;30.02;99961.09;5014415;28;20029;-90
2022/07/18 00:54:28;;;;;;;3.80;2.25;;;;;;;26.29;29.84;100013.63;5015497;28;20029;-90
2022/07/18 00:56:54;;;;;;;3.85;2.30;;;;;;;25.92;29.90;99956.19;5014384;28;20050;-90
2022/07/18 00:59:20;;;;;;;3.08;2.10;;;;;;;25.62;29.94;99938.00;5014368;28;20101;-89
2022/07/18 01:01:47;;;;;;;2.65;1.90;;;;;;;25.43;29.99;99909.81;5014616;28;20029;-90
2022/07/18 01:04:23;;;;;;;2.53;2.10;;;;;;;26.21;29.80;100016.88;5014385;28;20460;-89
2022/07/18 01:06:50;;;;;;;4.13;2.00;;;;;;;26.20;29.76;100017.13;5014950;28;20029;-90
2022/07/18 01:09:17;;;;;;;4.50;2.08;;;;;;;26.20;29.80;100030.69;5023644;28;20033;-90
2022/07/18 01:11:45;;;;;;;2.50;1.88;;;;;;;26.20;29.49;100028.78;5032461;28;20030;-90
2022/07/18 01:14:12;;;;;;;5.20;2.35;;;;;;;26.20;29.61;100033.38;5020781;28;20026;-89
2022/07/18 01:16:37;;;;;;;6.13;2.35;;;;;;;25.87;29.37;100003.00;5014551;28;20061;-90
2022/07/18 01:19:03;;;;;;;2.33;2.13;;;;;;;25.89;29.20;99992.72;5014430;28;20022;-89
2022/07/18 01:21:28;;;;;;;3.63;2.08;;;;;;;26.14;29.00;100029.84;5015351;28;20025;-90
2022/07/18 01:23:54;;;;;;;4.30;2.05;;;;;;;25.43;28.95;99909.81;5015232;28;20018;-89
2022/07/18 01:26:20;;;;;;;3.75;2.13;;;;;;;25.68;28.66;99936.13;5015035;28;20124;-90
2022/07/18 01:28:46;;;;;;;7.72;2.35;;;;;;;25.65;28.48;99923.94;5014050;28;20033;-90
2022/07/18 01:31:12;;;;;;;5.00;1.98;;;;;;;25.47;27.93;99894.69;5015092;28;20048;-90
2022/07/18 01:33:37;;;;;;;6.80;1.92;;;;;;;26.08;27.75;99981.41;5015002;28;20147;-90
2022/07/18 01:36:04;;;;;;;2.85;1.85;;;;;;;25.54;27.17;99933.91;5013846;28;20026;-90
2022/07/18 01:38:31;;;;;;;2.00;1.80;;;;;;;26.24;27.32;100010.09;5015202;28;20014;-90
2022/07/18 01:40:57;;;;;;;7.07;2.17;;;;;;;26.00;26.60;99941.31;5013972;28;20025;-89
2022/07/18 01:43:24;;;;;;;2.17;1.52;;;;;;;26.03;26.33;99962.47;5013912;28;20136;-90
2022/07/18 01:45:49;;;;;;;3.85;1.63;;;;;;;26.17;25.87;99985.19;5013613;28;20056;-90
2022/07/18 01:48:15;;;;;;;4.90;1.80;;;;;;;25.60;25.88;99900.41;5014649;28;20026;-89
2022/07/18 01:50:40;;;;;;;3.38;1.65;;;;;;;26.18;25.46;99989.53;5014848;28;20030;-90
2022/07/18 01:53:06;;;;;;;2.00;1.40;;;;;;;25.37;25.25;99867.66;5014564;28;20028;-90
2022/07/18 01:55:31;;;;;;;2.13;1.63;;;;;;;25.07;25.22;99835.94;5029658;28;20026;-89
2022/07/18 01:57:57;;;;;;;4.47;1.73;;;;;;;25.63;25.24;99917.97;5012891;28;20050;-89
2022/07/18 02:00:22;;;;;;;3.22;1.55;;;;;;;25.73;25.31;99950.47;5013322;28;20045;-89
2022/07/18 02:02:48;;;;;;;2.05;1.45;;;;;;;25.54;25.45;99931.22;5014137;28;20025;-90
2022/07/18 02:05:13;;;;;;;3.33;1.52;;;;;;;25.73;25.94;99987.53;5014059;28;20479;-89
2022/07/18 02:07:41;;;;;;;1.65;1.48;;;;;;;25.84;26.00;100021.66;5013031;28;20021;-89
2022/07/18 02:10:09;;;;;;;4.68;1.77;;;;;;;25.18;26.35;99956.47;5012979;28;20033;-89
2022/07/18 02:12:34;;;;;;;4.28;1.50;;;;;;;24.91;26.84;99922.28;5014019;28;20022;-89
2022/07/18 02:15:00;;;;;;;3.38;1.90;;;;;;;24.79;27.04;99943.28;5013054;28;20021;-89
2022/07/18 02:17:26;;;;;;;1.88;1.60;;;;;;;24.89;27.19;99958.75;5012976;28;20081;-90
2022/07/18 02:19:51;;;;;;;1.75;1.63;;;;;;;24.75;27.03;99919.78;5013904;28;20022;-90
2022/07/18 02:22:16;;;;;;;4.47;1.83;;;;;;;24.29;27.41;99884.38;5012770;28;20100;-90
2022/07/18 02:24:42;;;;;;;1.90;1.63;;;;;;;25.31;27.43;100074.94;5012890;28;20022;-90
2022/07/18 02:27:08;;;;;;;3.28;1.40;;;;;;;24.75;27.28;99977.28;5013056;28;20029;-90
2022/07/18 02:29:33;;;;;;;2.85;1.67;;;;;;;23.98;27.22;99842.84;5012277;28;20061;-88
2022/07/18 02:31:59;;;;;;;5.03;1.73;;;;;;;23.38;26.89;99753.09;5028773;28;20026;-88
2022/07/18 02:34:24;;;;;;;2.05;1.58;;;;;;;25.05;26.95;100016.41;5012099;28;20037;-88
2022/07/18 02:36:50;;;;;;;3.42;1.85;;;;;;;24.90;27.07;99965.78;5013235;28;20021;-88
2022/07/18 02:39:16;;;;;;;5.10;2.00;;;;;;;25.04;26.87;100026.41;5013377;28;20391;-88
2022/07/18 02:41:42;;;;;;;2.88;1.90;;;;;;;25.12;26.95;100001.56;5013296;28;20053;-88
2022/07/18 02:44:08;;;;;;;5.22;2.00;;;;;;;25.47;27.00;100055.03;5013079;28;20125;-88
2022/07/18 02:46:33;;;;;;;3.00;1.80;;;;;;;24.81;27.01;99946.53;5012963;28;20032;-88
2022/07/18 02:48:59;;;;;;;3.53;1.70;;;;;;;25.21;26.87;100031.63;5011981;28;20052;-88
2022/07/18 02:51:25;;;;;;;5.22;1.90;;;;;;;25.25;26.98;100025.44;5012957;28;20022;-88
2022/07/18 02:53:50;;;;;;;5.75;2.15;;;;;;;25.55;26.88;100072.63;5011941;28;20029;-88
2022/07/18 02:56:15;;;;;;;2.45;2.00;;;;;;;25.36;26.74;100033.63;5012834;28;20132;-88
2022/07/18 02:58:41;;;;;;;2.00;1.50;;;;;;;24.33;26.58;99859.31;5028380;28;20021;-88
2022/07/18 03:01:06;;;;;;;2.78;1.70;;;;;;;24.78;26.50;99920.06;5013160;28;20036;-88
2022/07/18 03:03:32;;;;;;;2.80;1.70;;;;;;;25.58;26.39;100037.75;5011868;28;20426;-88
2022/07/18 03:05:57;;;;;;;2.92;1.80;;;;;;;25.16;26.52;100002.69;5012801;28;20033;-88
2022/07/18 03:08:23;;;;;;;2.75;1.85;;;;;;;25.31;26.34;100031.69;5014071;28;20388;-88
2022/07/18 03:10:48;;;;;;;3.83;1.95;;;;;;;24.93;26.42;99970.66;5019050;28;20029;-87
2022/07/18 03:13:14;;;;;;;3.90;1.88;;;;;;;24.90;26.35;99973.88;5028595;28;20074;-89
2022/07/18 03:15:40;;;;;;;2.05;1.73;;;;;;;25.18;26.27;100032.97;5017912;28;20546;-88
2022/07/18 03:18:05;;;;;;;3.90;1.92;;;;;;;25.54;26.16;100085.34;5013659;28;20069;-89
2022/07/18 03:20:31;;;;;;;3.60;2.08;;;;;;;25.54;26.23;100088.03;5013514;28;20030;-89
2022/07/18 03:22:57;;;;;;;2.15;1.90;;;;;;;25.12;26.40;100025.09;5013257;28;20022;-90
2022/07/18 03:25:22;;;;;;;3.67;2.00;;;;;;;24.88;26.26;99978.72;5012356;28;20018;-89
2022/07/18 03:27:48;;;;;;;6.28;1.98;;;;;;;24.81;26.14;99976.25;5012401;28;20083;-89
2022/07/18 03:30:13;;;;;;;3.40;1.77;;;;;;;25.57;25.92;100078.59;5012478;28;20109;-90
2022/07/18 03:32:39;;;;;;;7.13;2.15;;;;;;;25.56;26.21;100082.38;5013466;28;20034;-89
2022/07/18 03:35:05;;;;;;;2.85;1.98;;;;;;;25.17;26.44;100034.03;5012258;28;20406;-89
2022/07/18 03:37:31;;;;;;;4.63;1.80;;;;;;;25.25;26.58;100063.25;5015009;28;20030;-89
2022/07/18 03:39:56;;;;;;;3.42;1.80;;;;;;;24.84;26.80;100001.94;5016131;28;20139;-90
2022/07/18 03:42:22;;;;;;;4.85;2.10;;;;;;;24.45;27.02;99953.56;5016037;28;20018;-90
2022/07/18 03:44:47;;;;;;;2.00;1.63;;;;;;;25.30;27.05;100106.56;5016212;28;20128;-89
2022/07/18 03:47:12;;;;;;;2.95;1.95;;;;;;;25.24;27.19;100096.78;5016939;28;20026;-89
2022/07/18 03:49:38;;;;;;;4.15;2.30;;;;;;;24.65;27.44;100002.34;5015879;28;20022;-89
2022/07/18 03:52:06;;;;;;;3.03;1.80;;;;;;;24.69;27.38;100025.06;5016245;28;20022;-89
2022/07/18 03:54:32;;;;;;;3.25;2.00;;;;;;;24.18;27.68;99942.00;5015330;28;20041;-87
2022/07/18 03:56:57;;;;;;;4.93;2.33;;;;;;;24.51;27.80;100016.50;5015561;28;20176;-88
2022/07/18 03:59:23;;;;;;;3.72;1.83;;;;;;;24.67;27.87;100045.28;5015417;28;20038;-88
2022/07/18 04:01:51;;;;;;;4.03;1.60;;;;;;;24.85;27.95;100082.69;5015122;28;20014;-88
2022/07/18 04:04:16;;;;;;;6.55;2.28;;;;;;;24.30;27.73;99988.53;5015046;28;20072;-88
2022/07/18 04:06:42;;;;;;;4.47;2.10;;;;;;;24.67;28.17;100062.31;5014831;28;20022;-88
2022/07/18 04:09:07;;;;;;;2.95;2.33;;;;;;;24.68;27.99;100066.63;5014716;28;20014;-88
2022/07/18 04:11:32;;;;;;;5.05;2.10;;;;;;;24.82;28.39;100122.91;5014742;28;20025;-88
2022/07/18 04:13:58;;;;;;;4.75;2.22;;;;;;;24.48;28.33;100066.44;5014831;28;20030;-88
2022/07/18 04:16:23;;;;;;;2.95;2.08;;;;;;;24.26;28.58;100019.78;5014703;28;20056;-88
2022/07/18 04:18:50;;;;;;;4.38;2.35;;;;;;;24.88;28.48;100124.59;5018028;28;20026;-87
2022/07/18 04:21:16;;;;;;;3.72;2.15;;;;;;;24.56;28.53;100098.41;5022741;28;20018;-88
2022/07/18 04:23:42;;;;;;;5.18;2.22;;;;;;;24.47;28.67;100118.78;5022713;28;20085;-88
2022/07/18 04:26:08;;;;;;;5.70;2.40;;;;;;;24.54;28.68;100103.22;5021994;28;20029;-89
2022/07/18 04:28:34;;;;;;;3.65;2.22;;;;;;;24.90;28.56;100134.06;5023481;28;20077;-90
2022/07/18 04:31:01;;;;;;;2.67;2.05;;;;;;;23.89;28.64;99980.06;5038711;28;20111;-88
2022/07/18 04:33:26;;;;;;;4.65;2.35;;;;;;;24.99;28.73;100143.34;5035349;28;20083;-88
2022/07/18 04:35:52;;;;;;;4.68;2.13;;;;;;;24.57;28.55;100075.72;5015680;28;20029;-88
2022/07/18 04:38:19;;;;;;;4.05;1.90;;;;;;;24.82;28.76;100136.41;5015397;28;20080;-88
2022/07/18 04:40:45;;;;;;;5.93;1.95;;;;;;;24.48;28.56;100055.63;5015410;28;20022;-88
2022/07/18 04:43:10;;;;;;;4.70;2.15;;;;;;;24.03;28.69;99992.06;5030211;28;20025;-88
2022/07/18 04:45:36;;;;;;;6.68;2.22;;;;;;;23.55;28.83;99911.19;5031872;28;20018;-88
2022/07/18 04:48:04;;;;;;;4.82;2.40;;;;;;;25.11;28.95;100162.09;5016620;28;20029;-88
2022/07/18 04:50:30;;;;;;;4.72;2.40;;;;;;;24.49;28.75;100089.66;5017130;28;20018;-88
2022/07/18 04:52:56;;;;;;;2.83;1.83;;;;;;;25.15;28.95;100171.31;5016933;28;20026;-87
2022/07/18 04:55:22;;;;;;;4.22;2.10;;;;;;;25.17;28.72;100171.84;5017823;28;20029;-88
2022/07/18 04:57:48;;;;;;;4.80;1.83;;;;;;;25.17;29.27;100163.75;5017069;28;20041;-88
2022/07/18 05:00:18;;;;;;;2.58;1.90;;;;;;;25.18;28.91;100172.69;5017007;28;20033;-87
2022/07/18 05:02:46;;;;;;;6.53;2.13;;;;;;;25.16;28.57;100175.63;5025471;28;20022;-88
2022/07/18 05:05:13;;;;;;;2.83;1.83;;;;;;;25.13;28.91;100162.63;5026495;28;20029;-88
2022/07/18 05:07:40;;;;;;;5.50;2.67;;;;;;;25.10;28.26;100160.47;5015978;28;20506;-87
2022/07/18 05:10:07;;;;;;;2.72;1.98;;;;;;;24.75;28.32;100165.53;5016029;28;20026;-88
2022/07/18 05:12:37;;;;;;;3.95;2.03;;;;;;;24.05;28.58;99997.19;5013946;28;20044;-88
2022/07/18 05:15:11;;;;;;;2.67;2.00;;;;;;;25.10;28.82;100162.34;5030109;28;20064;-88
2022/07/18 05:17:38;;;;;;;2.90;2.22;;;;;;;24.97;28.47;100137.38;5013370;28;20033;-87
2022/07/18 05:20:05;;;;;;;3.13;2.10;;;;;;;24.52;28.41;100066.72;5013367;28;20025;-88
2022/07/18 05:22:32;;;;;;;3.88;2.78;;;;;;;24.83;28.58;100113.75;5014762;28;20646;-88
2022/07/18 05:24:57;;;;;;;6.25;3.25;;;;;;;24.55;28.70;100048.16;5014592;28;20021;-88
2022/07/18 05:27:23;;;;;;;4.68;2.50;;;;;;;24.74;28.19;100069.38;5014289;28;20049;-89
2022/07/18 05:29:48;;;;;;;5.50;2.00;;;;;;;25.39;27.60;100177.19;5013509;28;20490;-88
2022/07/18 05:32:14;;;;;;;2.90;1.70;;;;;;;25.10;27.79;100129.91;5013368;28;20030;-88
2022/07/18 05:34:39;;;;;;;5.32;2.05;;;;;;;25.33;27.64;100157.41;5012998;28;20164;-88
2022/07/18 05:37:05;;;;;;;3.42;2.17;;;;;;;24.88;27.37;100098.38;5016997;28;20055;-87
2022/07/18 05:39:30;;;;;;;3.50;1.35;;;;;;;25.02;27.28;100101.50;5014449;28;20583;-87
2022/07/18 05:41:55;;;;;;;5.35;1.80;;;;;;;24.19;26.82;99982.22;5014536;28;20509;-87
2022/07/18 05:44:21;;;;;;;3.78;1.95;;;;;;;24.85;27.00;100085.41;5026294;28;20497;-88
2022/07/18 05:46:47;;;;;;;4.97;1.90;;;;;;;24.95;27.15;100079.25;5018645;28;20032;-87
2022/07/18 05:49:13;;;;;;;3.17;1.38;;;;;;;24.75;27.29;100034.00;5013260;28;20029;-87
2022/07/18 05:51:39;;;;;;;3.65;2.05;;;;;;;24.50;27.26;99991.41;5013388;28;20057;-87
2022/07/18 05:54:04;;;;;;;8.55;3.28;;;;;;;25.67;27.29;100172.50;5012736;28;20049;-87
2022/07/18 05:56:30;;;;;;;3.45;2.40;;;;;;;25.09;27.72;100096.69;5016348;28;20050;-88
2022/07/18 05:58:55;;;;;;;3.83;1.98;;;;;;;25.68;27.79;100169.56;5027859;28;20029;-87
2022/07/18 06:01:21;;;;;;;5.28;2.97;;;;;;;25.10;27.50;100071.28;5031731;28;20029;-87
2022/07/18 06:03:47;;;;;;;6.68;2.63;;;;;;;24.84;27.71;100039.75;5012628;28;20033;-88
2022/07/18 06:06:13;;;;;;;4.80;2.20;;;;;;;25.31;27.98;100100.09;5013854;28;20053;-87
2022/07/18 06:08:39;;;;;;;7.13;1.80;;;;;;;25.00;27.60;100046.91;5016886;28;20029;-88
2022/07/18 06:11:06;;;;;;;1.95;1.63;;;;;;;24.78;27.65;100002.97;5012684;28;20414;-88
2022/07/18 06:13:32;;;;;;;4.00;1.70;;;;;;;25.26;27.89;100078.41;5016881;28;20129;-88
2022/07/18 06:15:58;;;;;;;5.15;2.03;;;;;;;26.06;27.73;100184.63;5033023;28;20029;-88
2022/07/18 06:18:24;;;;;;;2.35;2.15;;;;;;;26.15;28.15;100193.06;5032214;28;20032;-87
2022/07/18 06:20:49;;;;;;;3.72;1.92;;;;;;;25.45;27.86;100068.00;5025098;28;20030;-88
2022/07/18 06:23:14;;;;;;;4.20;2.22;;;;;;;24.65;27.84;99964.53;5014045;28;20037;-87
2022/07/18 06:25:41;;;;;;;4.50;2.25;;;;;;;25.69;28.07;100090.03;5013447;28;20026;-87
2022/07/18 06:28:06;;;;;;;4.85;2.30;;;;;;;25.75;28.01;100123.31;5012126;28;20034;-87
2022/07/18 06:30:31;;;;;;;5.32;2.97;;;;;;;25.78;28.44;100115.50;5022874;28;20024;-88
2022/07/18 06:32:57;;;;;;;5.20;2.17;;;;;;;25.81;29.01;100117.69;5011793;28;20151;-88
2022/07/18 06:35:22;;;;;;;4.05;2.08;;;;;;;25.92;28.93;100134.75;5027382;28;20112;-88
2022/07/18 06:37:48;;;;;;;3.67;2.17;;;;;;;26.04;28.91;100118.31;5032330;28;20029;-88
2022/07/18 06:40:13;;;;;;;4.03;1.90;;;;;;;26.21;29.07;100154.09;5031646;28;20029;-88
2022/07/18 06:42:39;;;;;;;6.03;2.35;;;;;;;25.69;29.50;100059.47;5015379;28;20087;-88
2022/07/18 06:45:06;;;;;;;5.13;2.33;;;;;;;25.69;30.10;100044.06;5013602;28;20022;-88
2022/07/18 06:47:31;;;;;;;6.10;3.17;;;;;;;26.19;30.31;100113.78;5013742;28;20021;-88
2022/07/18 06:49:56;;;;;;;6.68;3.10;;;;;;;26.09;30.77;100078.56;5024920;28;20112;-88
2022/07/18 06:52:22;;;;;;;4.75;2.65;;;;;;;25.16;30.79;99921.59;5018324;28;20033;-88
2022/07/18 06:54:47;;;;;;;7.07;2.80;;;;;;;25.34;30.78;99963.59;5015153;28;20033;-88
2022/07/18 06:57:13;;;;;;;6.88;3.00;;;;;;;25.82;30.51;100031.94;5011231;28;20524;-88
2022/07/18 06:59:38;;;;;;;5.82;3.13;;;;;;;26.95;30.91;100177.31;5026284;28;20026;-88
2022/07/18 07:02:04;;;;;;;6.15;3.45;;;;;;;26.82;30.85;100148.84;5030843;28;20116;-88
2022/07/18 07:04:30;;;;;;;5.43;2.97;;;;;;;25.86;30.60;99984.31;5027299;28;20102;-88
2022/07/18 07:06:56;;;;;;;5.95;3.80;;;;;;;25.93;30.63;100004.63;5052376;28;20021;-88
2022/07/18 07:09:21;;;;;;;5.57;2.78;;;;;;;26.62;31.01;100094.63;5050892;28;20108;-88
2022/07/18 07:11:46;;;;;;;5.88;3.88;;;;;;;27.05;31.47;100142.13;5024003;28;20067;-89
2022/07/18 07:14:12;;;;;;;8.05;3.45;;;;;;;26.82;31.38;100092.78;5030311;28;20133;-87
2022/07/18 07:16:37;;;;;;;5.68;3.25;;;;;;;26.68;31.77;100056.44;5029363;28;21041;-87
2022/07/18 07:19:03;;;;;;;6.10;3.33;;;;;;;26.86;31.61;100055.09;5028903;28;20494;-86
2022/07/18 07:21:29;;;;;;;5.00;3.30;;;;;;;27.38;31.84;100141.53;5029990;28;20029;-86
2022/07/18 07:23:54;;;;;;;6.38;4.20;;;;;;;27.16;32.25;100120.13;5025263;28;20022;-86
2022/07/18 07:26:20;;;;;;;14.57;5.95;;;;;;;26.84;32.44;100058.09;5014650;28;20124;-86
2022/07/18 07:28:45;;;;;;;4.85;3.47;;;;;;;27.17;32.58;100101.97;5030048;28;20029;-86
2022/07/18 07:31:11;;;;;;;7.18;5.05;;;;;;;27.10;32.77;100080.56;5029858;28;20109;-86
2022/07/18 07:33:36;;;;;;;9.73;6.18;;;;;;;26.94;32.81;100043.72;5029013;28;20026;-86
2022/07/18 07:36:03;;;;;;;7.93;5.18;;;;;;;27.50;33.06;100128.50;5026378;28;20025;-86
2022/07/18 07:38:29;;;;;;;8.32;5.97;;;;;;;27.56;32.89;100106.78;5032934;28;20036;-86
2022/07/18 07:40:55;;;;;;;7.18;4.60;;;;;;;27.86;33.02;100150.13;5022180;28;20030;-86
2022/07/18 07:43:21;;;;;;;6.03;5.15;;;;;;;27.44;33.43;100063.66;5010054;28;20058;-85
2022/07/18 07:45:48;;;;;;;6.75;4.80;;;;;;;27.78;32.95;100102.66;5022043;28;20462;-88
2022/07/18 07:48:14;;;;;;;8.63;4.20;;;;;;;27.76;33.03;100080.41;5011480;28;20099;-86
2022/07/18 07:50:40;;;;;;;5.00;3.55;;;;;;;28.12;33.21;100164.41;5011393;28;20483;-86
2022/07/18 07:53:06;;;;;;;5.60;4.90;;;;;;;28.10;33.46;100136.72;5011154;28;20084;-86
2022/07/18 07:55:31;;;;;;;6.72;4.28;;;;;;;27.17;33.47;100016.03;5027403;28;20039;-86
2022/07/18 07:57:57;;;;;;;4.47;3.40;;;;;;;28.15;33.41;100139.41;5015454;28;20149;-86
2022/07/18 08:00:22;;;;;;;5.82;3.70;;;;;;;28.11;33.44;100138.34;5025222;28;20065;-88
2022/07/18 08:03:00;;;;;;;6.28;4.10;;;;;;;27.41;34.26;100039.81;5026286;28;20038;-87
2022/07/18 08:05:28;;;;;;;6.78;3.50;;;;;;;27.87;34.45;100119.19;5029612;28;20030;-86
2022/07/18 08:07:53;;;;;;;7.85;4.43;;;;;;;27.00;34.81;99957.81;5028503;28;20036;-86
2022/07/18 08:10:19;;;;;;;5.47;3.20;;;;;;;28.00;34.87;100074.31;5028161;28;20037;-87
2022/07/18 08:12:46;;;;;;;6.13;4.38;;;;;;;27.96;35.23;100062.41;5024773;28;20433;-86
2022/07/18 08:15:12;;;;;;;5.05;3.30;;;;;;;28.22;35.24;100063.06;5020076;28;20029;-87
2022/07/18 08:17:37;;;;;;;3.60;3.08;;;;;;;28.72;35.54;100140.72;5028587;28;20029;-87
2022/07/18 08:20:03;;;;;;;6.80;3.72;;;;;;;28.72;35.51;100106.22;5026248;28;20053;-86
2022/07/18 08:22:29;;;;;;;5.38;3.33;;;;;;;28.65;35.37;100072.31;5037261;28;20034;-86
2022/07/18 08:24:54;;;;;;;4.95;3.05;;;;;;;28.40;34.96;100035.28;5018978;28;20029;-88
2022/07/18 08:27:20;;;;;;;4.82;3.50;;;;;;;28.40;35.04;100022.53;5039391;28;20535;-87
2022/07/18 08:29:45;;;;;;;6.63;3.58;;;;;;;28.32;35.29;99998.69;5032498;28;20040;-87
2022/07/18 08:32:10;;;;;;;4.70;3.38;;;;;;;29.03;35.21;100090.50;5047922;28;20116;-87
2022/07/18 08:34:36;;;;;;;5.65;3.22;;;;;;;28.09;35.25;99943.16;5043893;28;20038;-88
2022/07/18 08:37:01;;;;;;;9.48;8.52;;;;;;;28.79;34.84;100035.22;5022237;28;20033;-88
2022/07/18 08:39:27;;;;;;;5.45;3.90;;;;;;;29.16;34.87;100044.69;5013109;28;20036;-88
2022/07/18 08:41:54;;;;;;;7.07;5.68;;;;;;;29.72;34.65;100108.25;5013130;28;20087;-87
2022/07/18 08:44:20;;;;;;;8.15;4.40;;;;;;;29.56;34.33;100055.13;5013145;28;20091;-88
2022/07/18 08:46:51;;;;;;;6.63;4.00;;;;;;;29.96;34.36;100127.31;5014472;28;20105;-88
2022/07/18 08:49:16;;;;;;;9.65;5.43;;;;;;;29.75;34.44;100106.91;5013330;28;20419;-88
2022/07/18 08:51:43;;;;;;;6.20;5.45;;;;;;;28.95;34.50;99955.16;5014201;28;20026;-88
2022/07/18 08:54:10;;;;;;;3.83;2.97;;;;;;;29.59;33.63;100026.50;5012301;28;20034;-88
2022/07/18 08:56:36;;;;;;;6.45;3.67;;;;;;;29.61;33.42;100027.03;5022784;28;20056;-88
2022/07/18 08:59:02;;;;;;;5.63;3.97;;;;;;;29.92;33.44;100071.81;5033472;28;20428;-88
2022/07/18 09:01:29;;;;;;;6.93;5.32;;;;;;;30.13;33.45;100060.69;5042372;28;20036;-88
2022/07/18 09:06:47;;;;;;;3.60;3.10;;;;;;;30.21;33.30;100069.00;5031036;28;20589;-88
2022/07/18 09:09:14;;;;;;;5.90;3.03;;;;;;;30.04;33.61;100038.75;5021950;28;20044;-87
2022/07/18 09:11:51;;;;;;;4.53;3.22;;;;;;;29.81;33.60;100025.97;5017338;28;20075;-88
2022/07/18 09:14:35;;;;;;;7.82;3.53;;;;;;;30.26;33.82;100115.22;5020630;28;20152;-88
2022/07/18 09:17:11;;;;;;;6.22;3.42;;;;;;;29.93;34.07;100073.44;5017101;28;20029;-87
2022/07/18 09:19:41;;;;;;;16.30;4.35;;;;;;;29.92;33.84;100063.66;5025625;28;20521;-87
2022/07/18 09:22:19;;;;;;;5.25;3.17;;;;;;;30.13;33.62;100107.78;5029778;28;20079;-88
2022/07/18 09:24:52;;;;;;;5.30;4.40;;;;;;;30.09;34.00;100108.66;5020319;28;20022;-88
2022/07/18 09:27:27;;;;;;;4.65;3.25;;;;;;;30.39;33.85;100099.25;5028508;28;20040;-88
2022/07/18 09:30:11;;;;;;;8.20;4.95;;;;;;;30.41;33.52;100107.94;5032168;28;20055;-88
2022/07/18 09:32:38;;;;;;;5.35;3.70;;;;;;;30.43;33.25;100075.75;5029003;28;20044;-88
2022/07/18 09:35:32;;;;;;;5.18;3.25;;;;;;;30.61;33.04;100113.94;5021283;28;20040;-87
2022/07/18 09:38:02;;;;;;;4.32;2.95;;;;;;;30.87;32.02;100111.59;5010283;28;20414;-87
2022/07/18 09:40:54;;;;;;;3.58;3.08;;;;;;;31.34;31.36;100107.00;5013766;28;20493;-88
2022/07/18 09:43:22;;;;;;;4.25;3.40;;;;;;;31.01;30.97;99966.28;5022055;28;20124;-87
2022/07/18 09:45:50;;;;;;;10.88;3.92;;;;;;;30.97;30.52;99920.50;5010475;28;20034;-88
2022/07/18 09:48:34;;;;;;;5.18;3.33;;;;;;;31.57;30.19;99994.06;5021196;28;20014;-88
2022/07/18 09:51:03;;;;;;;7.07;3.60;;;;;;;32.07;29.95;100045.97;5032084;28;20087;-87
2022/07/18 09:53:35;;;;;;;7.00;3.80;;;;;;;32.60;29.69;100101.88;5013569;28;20096;-88
2022/07/18 09:56:01;;;;;;;4.13;3.03;;;;;;;32.34;30.11;100101.69;5012071;28;20514;-88
2022/07/18 09:58:28;;;;;;;5.72;3.65;;;;;;;32.04;30.17;100095.75;5012222;28;20037;-88
2022/07/18 10:00:56;;;;;;;9.52;3.35;;;;;;;31.55;30.12;100067.25;5022176;28;20058;-87
2022/07/18 10:03:23;;;;;;;4.72;3.58;;;;;;;31.65;30.28;100077.16;5029889;28;20037;-88
2022/07/18 10:05:49;;;;;;;4.97;2.75;;;;;;;31.57;29.35;100004.97;5032480;28;20021;-88
2022/07/18 10:08:21;;;;;;;5.63;2.88;;;;;;;31.67;29.64;100050.38;5026212;28;20047;-91
2022/07/18 10:10:48;;;;;;;4.82;4.35;;;;;;;31.86;29.29;100022.94;5032938;28;20514;-90
2022/07/18 10:13:15;;;;;;;4.70;4.18;;;;;;;32.68;28.57;100093.72;5024483;28;20090;-90
2022/07/18 10:15:43;;;;;;;6.63;2.80;;;;;;;32.43;28.10;100001.41;5022677;28;20026;-87
2022/07/18 10:18:11;;;;;;;5.15;3.08;;;;;;;31.42;28.60;99887.16;5013792;28;20029;-87
2022/07/18 10:20:44;;;;;;;6.85;3.05;;;;;;;32.13;29.09;100035.72;5013320;28;20082;-87
2022/07/18 10:23:17;;;;;;;6.82;3.30;;;;;;;32.06;29.14;100044.34;5021147;28;20029;-87
2022/07/18 10:25:44;;;;;;;6.50;2.95;;;;;;;31.28;29.44;99990.88;5019732;28;20105;-90
2022/07/18 10:28:13;;;;;;;4.07;2.85;;;;;;;31.53;29.19;100003.97;5014417;28;20088;-90
2022/07/18 10:30:44;;;;;;;4.57;2.72;;;;;;;31.18;28.97;99980.94;5012990;28;20525;-90
2022/07/18 10:33:39;;;;;;;4.50;3.13;;;;;;;31.70;29.52;100073.53;5017490;28;20034;-90
2022/07/18 10:36:10;;;;;;;4.63;3.30;;;;;;;30.68;29.24;99955.44;5012965;28;20034;-90
2022/07/18 10:38:36;;;;;;;5.75;3.30;;;;;;;31.46;28.74;100019.97;5027551;28;20037;-90
2022/07/18 10:41:07;;;;;;;5.68;3.28;;;;;;;31.77;28.70;100047.44;5033737;28;20531;-90
2022/07/18 10:43:36;;;;;;;7.15;2.80;;;;;;;31.44;28.59;99959.41;5052059;28;20029;-90
2022/07/18 10:46:04;;;;;;;9.57;2.97;;;;;;;32.71;27.81;100049.38;5051242;28;20053;-91
2022/07/18 10:48:32;;;;;;;4.45;3.42;;;;;;;33.24;27.29;100043.06;5017031;28;20053;-90
2022/07/18 10:51:01;;;;;;;4.38;2.90;;;;;;;33.77;26.49;100047.59;5015807;28;20051;-91
2022/07/18 10:53:53;;;;;;;5.10;2.63;;;;;;;34.25;25.42;100050.25;5012992;28;20034;-90
2022/07/18 10:56:19;;;;;;;5.47;2.60;;;;;;;33.86;25.09;99946.28;5010609;28;20081;-90
2022/07/18 10:58:44;;;;;;;4.25;2.50;;;;;;;33.65;24.06;99896.78;5030730;28;20087;-90
2022/07/18 11:01:20;;;;;;;5.05;2.65;;;;;;;34.20;23.77;99968.19;5032206;28;20045;-91
2022/07/18 11:03:46;;;;;;;7.00;3.55;;;;;;;34.36;24.27;99957.53;5020620;28;20072;-91
2022/07/18 11:06:11;;;;;;;3.88;2.65;;;;;;;34.91;23.85;100037.09;5035744;28;20022;-90
2022/07/18 11:08:38;;;;;;;4.85;2.58;;;;;;;35.16;23.65;100038.16;5038897;28;20041;-90
2022/07/18 11:11:07;;;;;;;4.95;2.67;;;;;;;35.03;23.20;99985.09;5037734;28;20022;-90
2022/07/18 11:13:35;;;;;;;4.80;2.78;;;;;;;35.51;22.82;100027.03;5029609;28;20536;-90
2022/07/18 11:16:06;;;;;;;4.60;3.13;;;;;;;35.81;22.67;100028.66;5017274;28;20510;-90
2022/07/18 11:18:42;;;;;;;5.13;4.10;;;;;;;36.13;22.03;100027.09;5016644;28;20087;-89
2022/07/18 11:21:22;;;;;;;4.07;2.92;;;;;;;36.42;21.68;100025.41;5029132;28;20499;-88
2022/07/18 11:24:00;;;;;;;6.15;3.28;;;;;;;36.07;21.45;99917.69;5017395;28;20097;-89
2022/07/18 11:26:26;;;;;;;4.20;2.40;;;;;;;36.68;21.03;100014.13;5014212;28;20022;-89
2022/07/18 11:28:59;;;;;;;2.58;2.30;;;;;;;36.71;21.08;100022.50;5013914;28;20021;-89